Aérodrome :
LOGIN :

S'inscrire | Disclaimer

   EN    FR    IT 

 










Légende :    VFR   VFR Marginal   IFR   IFR Intensif   IFR Très Intensif
Visi : 
Plafond : 
>= 8 km
>= 3000ft
5 à 8 km
1000 à 3000 ft
1500m à 5 km
500 à 1000 ft
800 à 1500m
200 à 500 ft
< 800m
< 200 ft
Symboles :   Orages  Brouillard  Fortes neiges  Fortes précipitations  Vent > 20 kt
SIGMETs :   Divers  Orages  Givrage  Turbulence  Onde Orograph.  Cendres Volcan.







- Altitude de l'aérodrome : 123 ft
- Code IATA : BLQ


LIPE - Bologna Guglielmo Marconi

DERNIER METAR :
  • 260120Z 06011KT 9999 SCT040 SCT080 M02/M09 Q1014

METARs EXPIRÉS :
  • 260050Z 05011KT 9999 SCT040 SCT080 M02/M10 Q1014
  • 260020Z 05011KT 9999 SCT040 SCT080 M02/M09 Q1014
  • 252350Z 06012KT 030V090 9999 SCT040 SCT080 M02/M09 Q1014
  • 252320Z 06010KT 030V090 9999 SCT040 SCT080 M01/M10 Q1014
  • 252250Z 06011KT 020V090 9999 SCT040 SCT080 M01/M09 Q1014
  • 252220Z 06012KT 9999 BKN040 SCT080 M01/M09 Q1014

TAF TAF LIPE
Valide du 26 à 00h jusqu'au 27 à 00h UTC


252300Z 2600/2624 07013KT 9999 BKN025 BKN050
Pas de NOTAMs connus pour ce terrain.
3 SIGMETs publiés pour la FIR Milano (LIMM) :
 
Orages noyés dans la masse
LIMM SIGMET 18 VALID 252230/260230 LIIP
LIMM MILANO FIR EMBD TS FCST WI N4359 E00854 - N4331 E01008 - N4311 E00945 - N4341 E00750 - N4359 E00854 TOP FL240 STNR NC=
Givrage fort
LIMM SIGMET 17 VALID 252230/260230 LIIP
LIMM MILANO FIR SEV ICE FCST S OF LINE N4420 E00638 - N4450 E01323 FL030/120 MOV S WKN=
Turbulence forte
LIMM SIGMET 16 VALID 252230/260230 LIIP
LIMM MILANO FIR SEV TURB FCST WI N4636 E01341 - N4536 E01354 - N4509 E01302 - N4347 E01400 - N4328 E01319 - N4428 E01100 - N4534 E01058 - N4636 E01341 SFC/FL060 STNR NC=



MET'MAP, la Météo Aéronautique d'un coup d'oeil ! - Copyright ORBIFLY Décembre 2007 - Disclaimer

ORBIFLY MET'MAP TEAM :

Programmation & Développement : Alexandra Zaïnal
Conception & Développement : Baudouin d'Aumeries
Co-Programmation & Développement : Marc-Olivier Méhu
Soutien technique & logistique : Manuel Goepfert

Contact : metmap@orbifly.com




SOURCES & CREDITS :

   NOAA